createdAt,value
2022-10-18T00:00:02.328Z,11.80
2022-10-18T00:03:17.223Z,9.97
2022-10-18T00:06:25.220Z,10.65
2022-10-18T00:09:34.363Z,9.10
2022-10-18T00:12:50.263Z,9.35
2022-10-18T00:16:18.308Z,8.90
2022-10-18T00:19:33.222Z,10.37
2022-10-18T00:22:42.062Z,10.40
2022-10-18T00:25:50.240Z,11.63
2022-10-18T00:29:09.260Z,12.15
2022-10-18T00:32:17.796Z,11.60
2022-10-18T00:35:32.208Z,12.50
2022-10-18T00:38:40.344Z,12.20
2022-10-18T00:41:56.274Z,12.82
2022-10-18T00:45:23.256Z,12.32
2022-10-18T00:48:38.358Z,12.77
2022-10-18T00:51:58.290Z,10.30
2022-10-18T00:55:07.276Z,8.50
2022-10-18T00:58:18.189Z,8.60
2022-10-18T01:01:33.352Z,8.90
2022-10-18T01:04:42.086Z,9.60
2022-10-18T01:08:14.273Z,8.73
2022-10-18T01:11:42.853Z,8.73
2022-10-18T01:15:16.252Z,9.85
2022-10-18T01:19:02.296Z,9.13
2022-10-18T01:22:12.029Z,9.30
2022-10-18T01:25:42.241Z,8.37
2022-10-18T01:29:18.270Z,10.55
2022-10-18T01:32:40.250Z,13.25
2022-10-18T01:36:04.286Z,10.32
2022-10-18T01:39:16.980Z,9.00
2022-10-18T01:42:27.292Z,9.27
2022-10-18T01:45:42.254Z,9.38
2022-10-18T01:49:00.280Z,10.25
2022-10-18T01:55:36.342Z,11.25
2022-10-18T01:58:54.020Z,11.47
2022-10-18T02:02:27.309Z,11.35
2022-10-18T02:05:45.263Z,12.13
2022-10-18T02:09:04.187Z,11.20
2022-10-18T02:12:17.316Z,11.63
2022-10-18T02:15:33.939Z,11.00
2022-10-18T02:18:55.261Z,10.75
2022-10-18T02:22:12.421Z,11.43
2022-10-18T02:25:20.250Z,10.93
2022-10-18T02:28:35.348Z,11.43
2022-10-18T02:31:45.611Z,10.60
2022-10-18T02:35:07.288Z,10.48
2022-10-18T02:38:11.989Z,10.30
2022-10-18T02:41:31.303Z,10.50
2022-10-18T02:44:46.312Z,9.00
2022-10-18T02:47:54.300Z,8.50
2022-10-18T02:51:09.302Z,18.83
2022-10-18T02:54:17.318Z,11.32
2022-10-18T02:57:25.933Z,10.05
2022-10-18T03:00:34.341Z,11.38
2022-10-18T03:03:43.164Z,11.07
2022-10-18T03:06:51.327Z,10.27
2022-10-18T03:10:06.327Z,10.60
2022-10-18T03:13:08.491Z,11.40
2022-10-18T03:16:24.332Z,10.75
2022-10-18T03:19:32.578Z,10.50
2022-10-18T03:22:47.323Z,10.95
2022-10-18T03:25:49.067Z,10.43
2022-10-18T03:29:04.400Z,10.82
2022-10-18T03:32:13.364Z,10.68
2022-10-18T03:35:22.091Z,10.40
2022-10-18T03:38:30.335Z,11.05
2022-10-18T03:41:39.098Z,11.15
2022-10-18T03:44:47.403Z,11.12
2022-10-18T03:47:55.864Z,9.52
2022-10-18T03:51:04.365Z,9.43
2022-10-18T03:54:19.382Z,10.35
2022-10-18T03:57:27.966Z,9.73
2022-10-18T04:00:43.393Z,9.15
2022-10-18T04:03:58.365Z,10.65
2022-10-18T04:07:07.342Z,10.13
2022-10-18T04:10:16.415Z,9.82
2022-10-18T04:13:25.348Z,10.32
2022-10-18T04:16:40.588Z,10.85
2022-10-18T04:19:55.340Z,10.50
2022-10-18T04:23:03.383Z,9.53
2022-10-18T04:26:11.870Z,10.73
2022-10-18T04:29:20.395Z,10.27
2022-10-18T04:32:29.088Z,10.73
2022-10-18T04:35:37.516Z,10.40
2022-10-18T04:38:45.935Z,10.20
2022-10-18T04:41:54.425Z,11.20
2022-10-18T04:45:10.387Z,11.07
2022-10-18T04:48:12.812Z,10.85
2022-10-18T04:51:27.423Z,12.85
2022-10-18T04:54:35.361Z,10.93
2022-10-18T04:57:50.408Z,10.90
2022-10-18T05:00:59.298Z,11.18
2022-10-18T05:04:14.409Z,28.20
2022-10-18T05:07:22.464Z,11.70
2022-10-18T05:10:38.388Z,13.23
2022-10-18T05:13:40.209Z,12.07
2022-10-18T05:16:55.442Z,11.90
2022-10-18T05:20:04.368Z,11.38
2022-10-18T05:23:19.411Z,11.98
2022-10-18T05:26:27.928Z,11.47
2022-10-18T05:29:42.488Z,11.40
2022-10-18T05:32:50.464Z,11.27
2022-10-18T05:36:08.635Z,11.07
2022-10-18T05:39:17.396Z,9.35
2022-10-18T05:42:26.131Z,10.10
2022-10-18T05:45:34.409Z,11.55
2022-10-18T05:48:44.442Z,13.10
2022-10-18T05:51:53.626Z,12.25
2022-10-18T05:55:08.408Z,12.13
2022-10-18T05:58:17.707Z,11.53
2022-10-18T06:01:26.105Z,12.45
2022-10-18T06:04:34.388Z,13.15
2022-10-18T06:07:49.567Z,12.52
2022-10-18T06:10:52.604Z,13.95
2022-10-18T06:14:07.420Z,11.60
2022-10-18T06:17:15.480Z,12.30
2022-10-18T06:20:37.469Z,12.63
2022-10-18T06:23:46.460Z,12.93
2022-10-18T06:26:55.171Z,12.75
2022-10-18T06:30:10.456Z,12.60
2022-10-18T06:33:19.003Z,13.23
2022-10-18T06:36:33.520Z,13.27
2022-10-18T06:39:48.445Z,12.55
2022-10-18T06:43:00.763Z,13.82
2022-10-18T06:46:26.469Z,11.37
2022-10-18T06:49:34.573Z,12.77
2022-10-18T06:52:43.105Z,12.13
2022-10-18T06:55:51.455Z,11.93
2022-10-18T06:59:00.340Z,12.50
2022-10-18T07:02:09.593Z,11.67
2022-10-18T07:05:19.473Z,11.77
2022-10-18T07:08:27.607Z,12.68
2022-10-18T07:11:36.258Z,13.02
2022-10-18T07:14:44.521Z,13.10
2022-10-18T07:17:59.488Z,14.23
2022-10-18T07:21:16.626Z,13.07
2022-10-18T07:24:24.511Z,13.62
2022-10-18T07:27:41.940Z,12.68
2022-10-18T07:31:00.326Z,13.35
2022-10-18T07:34:19.518Z,12.77
2022-10-18T07:37:35.827Z,13.07
2022-10-18T07:40:44.483Z,13.43
2022-10-18T07:44:00.512Z,13.10
2022-10-18T07:47:08.500Z,12.80
2022-10-18T07:50:18.147Z,14.77
2022-10-18T07:53:26.447Z,13.85
2022-10-18T07:56:35.023Z,13.40
2022-10-18T07:59:43.628Z,12.60
2022-10-18T08:03:00.531Z,13.13
2022-10-18T08:06:10.491Z,13.60
2022-10-18T08:09:25.484Z,12.85
2022-10-18T08:12:27.496Z,14.02
2022-10-18T08:15:42.571Z,14.05
2022-10-18T08:18:57.507Z,13.83
2022-10-18T08:22:12.697Z,13.90
2022-10-18T08:25:21.520Z,13.62
2022-10-18T08:28:30.393Z,14.07
2022-10-18T08:31:39.603Z,13.23
2022-10-18T08:34:54.563Z,13.80
2022-10-18T08:37:56.335Z,12.03
2022-10-18T08:41:36.681Z,10.95
2022-10-18T08:44:52.475Z,10.38
2022-10-18T08:48:07.559Z,10.07
2022-10-18T08:51:31.548Z,9.17
2022-10-18T08:55:02.558Z,9.40
2022-10-18T08:58:23.488Z,8.52
2022-10-18T09:02:08.634Z,8.95
2022-10-18T09:05:35.578Z,9.77
2022-10-18T09:09:04.452Z,8.30
2022-10-18T09:12:36.622Z,10.37
2022-10-18T09:15:58.521Z,8.48
2022-10-18T09:19:32.072Z,7.65
2022-10-18T09:22:59.608Z,8.35
2022-10-18T09:26:18.300Z,8.70
2022-10-18T09:29:42.656Z,8.20
2022-10-18T09:33:10.667Z,7.93
2022-10-18T09:36:23.494Z,7.57
2022-10-18T09:39:44.533Z,8.85
2022-10-18T09:42:55.374Z,8.97
2022-10-18T09:46:12.582Z,9.47
2022-10-18T09:49:21.349Z,8.82
2022-10-18T09:52:51.527Z,7.70
2022-10-18T09:56:09.565Z,7.95
2022-10-18T09:59:34.050Z,6.53
2022-10-18T10:02:42.559Z,6.70
2022-10-18T10:06:22.531Z,6.97
2022-10-18T10:09:46.811Z,7.20
2022-10-18T10:13:28.400Z,7.25
2022-10-18T10:16:37.271Z,6.27
2022-10-18T10:20:21.583Z,6.53
2022-10-18T10:23:27.979Z,6.25
2022-10-18T10:26:43.910Z,10.55
2022-10-18T10:29:53.134Z,8.45
2022-10-18T10:33:08.696Z,6.23
2022-10-18T10:36:28.622Z,6.17
2022-10-18T10:39:37.282Z,6.87
2022-10-18T10:43:32.915Z,5.37
2022-10-18T10:46:42.414Z,5.57
2022-10-18T10:50:07.856Z,6.03
2022-10-18T10:53:38.758Z,8.23
2022-10-18T10:57:05.216Z,5.37
2022-10-18T11:00:40.598Z,6.75
2022-10-18T11:03:55.149Z,5.03
2022-10-18T11:07:38.349Z,9.10
2022-10-18T11:10:55.006Z,5.30
2022-10-18T11:14:26.273Z,5.40
2022-10-18T11:17:39.480Z,6.15
2022-10-18T11:21:13.616Z,10.55
2022-10-18T11:24:23.582Z,5.47
2022-10-18T11:27:36.588Z,6.33
2022-10-18T11:31:09.965Z,4.70
2022-10-18T11:34:38.138Z,5.05
2022-10-18T11:38:03.667Z,5.10
2022-10-18T11:41:38.761Z,5.65
2022-10-18T11:45:04.802Z,4.40
2022-10-18T11:48:37.624Z,5.25
2022-10-18T11:52:07.856Z,6.07
2022-10-18T11:55:41.667Z,4.53
2022-10-18T11:59:12.779Z,4.10
2022-10-18T12:02:51.192Z,5.20
2022-10-18T12:06:02.647Z,5.43
2022-10-18T12:09:31.831Z,7.32
2022-10-18T12:12:48.664Z,4.18
2022-10-18T12:16:04.742Z,5.25
2022-10-18T12:19:23.709Z,4.80
2022-10-18T12:22:53.647Z,4.20
2022-10-18T12:26:08.648Z,4.05
2022-10-18T12:29:30.211Z,4.03
2022-10-18T12:33:02.212Z,3.97
2022-10-18T12:36:39.748Z,5.73
2022-10-18T12:40:18.488Z,4.15
2022-10-18T12:43:37.692Z,3.67
2022-10-18T12:47:02.662Z,4.05
2022-10-18T12:50:28.875Z,4.37
2022-10-18T12:53:38.736Z,3.83
2022-10-18T12:56:48.687Z,3.25
2022-10-18T12:59:57.805Z,3.58
2022-10-18T13:03:36.697Z,4.25
2022-10-18T13:07:21.751Z,4.10
2022-10-18T13:10:44.140Z,5.67
2022-10-18T13:14:18.680Z,3.95
2022-10-18T13:17:43.692Z,3.47
2022-10-18T13:21:21.746Z,4.78
2022-10-18T13:24:37.754Z,3.80
2022-10-18T13:28:11.733Z,4.33
2022-10-18T13:31:39.819Z,3.62
2022-10-18T13:34:48.700Z,3.22
2022-10-18T13:38:05.825Z,3.87
2022-10-18T13:41:28.286Z,3.77
2022-10-18T13:44:34.667Z,3.43
2022-10-18T13:47:49.749Z,3.60
2022-10-18T13:51:11.239Z,3.80
2022-10-18T13:54:38.779Z,3.67
2022-10-18T13:58:07.653Z,3.60
2022-10-18T14:01:39.052Z,3.60
2022-10-18T14:05:24.489Z,4.00
2022-10-18T14:08:42.808Z,3.80
2022-10-18T14:12:03.780Z,4.20
2022-10-18T14:15:15.752Z,4.13
2022-10-18T14:18:37.741Z,3.80
2022-10-18T14:21:43.431Z,4.93
2022-10-18T14:25:00.782Z,4.10
2022-10-18T14:28:36.352Z,4.18
2022-10-18T14:32:02.680Z,3.60
2022-10-18T14:35:32.700Z,4.07
2022-10-18T14:38:38.536Z,3.80
2022-10-18T14:41:57.931Z,4.00
2022-10-18T14:48:28.755Z,3.10
2022-10-18T14:51:42.859Z,3.83
2022-10-18T14:54:55.016Z,4.00
2022-10-18T14:58:09.788Z,4.25
2022-10-18T15:01:20.026Z,4.03
2022-10-18T15:04:35.777Z,3.70
2022-10-18T15:07:43.748Z,4.13
2022-10-18T15:10:53.275Z,4.07
2022-10-18T15:14:09.724Z,4.25
2022-10-18T15:17:39.756Z,4.22
2022-10-18T15:21:15.769Z,4.00
2022-10-18T15:24:37.748Z,4.70
2022-10-18T15:27:46.784Z,4.62
2022-10-18T15:30:55.852Z,4.40
2022-10-18T15:34:16.821Z,5.43
2022-10-18T15:37:38.691Z,4.53
2022-10-18T15:40:47.828Z,4.80
2022-10-18T15:44:14.233Z,4.97
2022-10-18T15:47:25.786Z,4.43
2022-10-18T15:50:44.073Z,6.15
2022-10-18T15:53:59.787Z,5.40
2022-10-18T15:57:16.756Z,6.30
2022-10-18T16:00:27.834Z,5.40
2022-10-18T16:03:36.588Z,8.45
2022-10-18T16:06:44.799Z,6.65
2022-10-18T16:09:53.395Z,5.93
2022-10-18T16:13:01.796Z,5.70
2022-10-18T16:16:27.818Z,5.00
2022-10-18T16:19:42.799Z,5.25
2022-10-18T16:22:57.806Z,6.75
2022-10-18T16:26:15.023Z,6.40
2022-10-18T16:29:48.804Z,7.30
2022-10-18T16:32:54.667Z,7.68
2022-10-18T16:36:09.859Z,9.23
2022-10-18T16:39:18.395Z,8.23
2022-10-18T16:42:32.998Z,7.57
2022-10-18T16:45:35.017Z,8.20
2022-10-18T16:48:50.816Z,8.60
2022-10-18T16:51:53.965Z,7.40
2022-10-18T16:55:09.828Z,6.82
2022-10-18T17:01:32.838Z,7.37
2022-10-18T17:04:40.812Z,6.65
2022-10-18T17:07:56.853Z,6.62
2022-10-18T17:10:59.340Z,6.90
2022-10-18T17:14:13.885Z,7.90
2022-10-18T17:17:23.145Z,7.67
2022-10-18T17:20:45.904Z,7.85
2022-10-18T17:23:48.071Z,7.18
2022-10-18T17:27:02.854Z,8.13
2022-10-18T17:30:05.711Z,7.63
2022-10-18T17:33:21.839Z,7.57
2022-10-18T17:36:30.142Z,6.78
2022-10-18T17:39:38.708Z,7.45
2022-10-18T17:42:46.847Z,7.12
2022-10-18T17:45:56.295Z,7.17
2022-10-18T17:49:04.849Z,7.23
2022-10-18T17:52:20.220Z,7.37
2022-10-18T17:55:22.087Z,7.85
2022-10-18T17:58:37.888Z,7.80
2022-10-18T18:04:55.928Z,8.33
2022-10-18T18:08:07.140Z,7.62
2022-10-18T18:11:17.246Z,6.72
2022-10-18T18:14:31.863Z,7.95
2022-10-18T18:17:34.566Z,8.63
2022-10-18T18:21:01.950Z,7.83
2022-10-18T18:24:03.905Z,7.95
2022-10-18T18:27:18.893Z,8.43
2022-10-18T18:30:28.284Z,8.55
2022-10-18T18:33:39.923Z,9.00
2022-10-18T18:36:54.909Z,9.63
2022-10-18T18:40:03.120Z,9.63
2022-10-18T18:43:25.070Z,9.63
2022-10-18T18:46:35.884Z,8.07
2022-10-18T18:50:05.938Z,10.00
2022-10-18T18:53:07.985Z,9.53
2022-10-18T18:56:25.917Z,9.70
2022-10-18T18:59:41.253Z,8.80
2022-10-18T19:02:42.965Z,9.48
2022-10-18T19:06:01.111Z,8.47
2022-10-18T19:09:06.840Z,8.90
2022-10-18T19:12:21.908Z,8.07
2022-10-18T19:15:23.984Z,9.32
2022-10-18T19:18:40.352Z,8.52
2022-10-18T19:22:05.250Z,9.13
2022-10-18T19:25:26.295Z,11.00
2022-10-18T19:28:35.989Z,10.93
2022-10-18T19:31:45.316Z,10.48
2022-10-18T19:34:53.960Z,9.25
2022-10-18T19:38:03.427Z,8.47
2022-10-18T19:41:15.024Z,8.57
2022-10-18T19:44:30.924Z,9.00
2022-10-18T19:47:32.617Z,9.25
2022-10-18T19:50:46.920Z,9.55
2022-10-18T19:53:48.733Z,8.77
2022-10-18T19:57:18.545Z,9.43
2022-10-18T20:00:28.923Z,9.85
2022-10-18T20:03:37.851Z,8.25
2022-10-18T20:06:52.907Z,8.52
2022-10-18T20:10:01.965Z,8.33
2022-10-18T20:13:17.903Z,8.60
2022-10-18T20:16:27.684Z,9.00
2022-10-18T20:19:43.010Z,8.98
2022-10-18T20:22:51.257Z,9.20
2022-10-18T20:26:09.940Z,8.93
2022-10-18T20:29:14.829Z,9.80
2022-10-18T20:32:29.924Z,10.32
2022-10-18T20:35:38.528Z,10.70
2022-10-18T20:38:48.975Z,13.57
2022-10-18T20:42:03.944Z,9.33
2022-10-18T20:45:13.967Z,8.17
2022-10-18T20:48:22.520Z,8.55
2022-10-18T20:51:30.992Z,8.73
2022-10-18T20:54:39.623Z,8.32
2022-10-18T20:57:47.959Z,8.40
2022-10-18T21:01:03.888Z,8.67
2022-10-18T21:04:18.939Z,9.98
2022-10-18T21:07:26.966Z,9.23
2022-10-18T21:10:36.508Z,9.38
2022-10-18T21:13:44.972Z,8.17
2022-10-18T21:16:59.993Z,8.70
2022-10-18T21:20:01.724Z,7.72
2022-10-18T21:23:23.048Z,7.53
2022-10-18T21:26:27.156Z,11.30
2022-10-18T21:29:41.987Z,8.57
2022-10-18T21:32:50.548Z,8.20
2022-10-18T21:35:59.010Z,7.35
2022-10-18T21:39:10.785Z,7.53
2022-10-18T21:42:24.520Z,7.75
2022-10-18T21:45:38.973Z,8.10
2022-10-18T21:48:46.503Z,7.30
2022-10-18T21:52:04.107Z,7.78
2022-10-18T21:55:12.849Z,7.80
2022-10-18T21:58:28.098Z,8.60
2022-10-18T22:01:32.740Z,8.57
2022-10-18T22:04:48.162Z,7.50
2022-10-18T22:07:56.052Z,8.45
2022-10-18T22:11:12.055Z,7.57
2022-10-18T22:14:19.992Z,7.35
2022-10-18T22:17:28.519Z,8.37
2022-10-18T22:20:46.041Z,6.60
2022-10-18T22:23:56.507Z,6.87
2022-10-18T22:27:05.026Z,7.93
2022-10-18T22:30:14.928Z,7.97
2022-10-18T22:33:23.326Z,7.97
2022-10-18T22:36:38.999Z,7.73
2022-10-18T22:39:53.981Z,7.05
2022-10-18T22:43:02.091Z,8.35
2022-10-18T22:46:19.047Z,7.60
2022-10-18T22:49:27.047Z,7.60
2022-10-18T22:52:42.059Z,8.10
2022-10-18T22:55:58.008Z,7.72
2022-10-18T22:59:14.046Z,7.37
2022-10-18T23:02:22.051Z,7.80
2022-10-18T23:05:30.661Z,7.40
2022-10-18T23:08:39.027Z,7.00
2022-10-18T23:11:47.653Z,7.82
2022-10-18T23:14:56.041Z,8.25
2022-10-18T23:18:12.064Z,8.02
2022-10-18T23:21:28.101Z,7.97
2022-10-18T23:24:43.029Z,7.70
2022-10-18T23:27:44.943Z,8.27
2022-10-18T23:31:03.142Z,8.05
2022-10-18T23:34:05.766Z,7.80
2022-10-18T23:37:20.052Z,7.87
2022-10-18T23:40:30.033Z,8.50
2022-10-18T23:43:46.165Z,7.15
2022-10-18T23:47:01.053Z,7.50
2022-10-18T23:50:10.273Z,7.68
2022-10-18T23:53:19.072Z,7.07
2022-10-18T23:56:34.067Z,7.63
2022-10-18T23:59:35.992Z,7.68
